CheckWX is a tool to help pilots better visualize weather data.  It is not intended as a substitute for an official pre-flight weather briefing.

16:12:13 UTC

KBKD METAR
Stephens County Airport
Breckenridge, Texas, USA
Current

17 mins ago

KBKD 261555Z AUTO 18011G17KT 10SM BKN029 OVC036 27/19 A3005 RMK AO2 T02690187
Observed
May-26 @ 15:55 UTC
Wind
  • 180° at 11 KTS
  • Gusting to 17 KTS
Visibility
10 SM
Flight Rules
MVFR
Cloud Levels
  • Broken at 2,900' AGL
  • Overcast at 3,600' AGL
Temperature
27°C / 81°F
Dewpoint
19°C / 66°F
Heat Index
28°C / 83°F
Humidity
62%
Altimeter
30.05" Hg
Pressure
1017.62 hPa
Previous

37 mins ago

KBKD 261535Z AUTO 18014G17KT 10SM SCT026 OVC035 26/19 A3005 RMK AO2 T02630188
Observed
May-26 @ 15:35 UTC
Wind
  • 180° at 14 KTS
  • Gusting to 17 KTS
Visibility
10 SM
Flight Rules
VFR
Cloud Levels
  • Scattered at 2,600' AGL
  • Overcast at 3,500' AGL
Temperature
26°C / 79°F
Dewpoint
19°C / 66°F
Humidity
65%
Altimeter
30.05" Hg
Pressure
1017.62 hPa
Previous

57 mins ago

KBKD 261515Z AUTO 19010KT 10SM BKN026 OVC032 26/19 A3007 RMK AO2 T02580188
Observed
May-26 @ 15:15 UTC
Wind
  • 190° at 10 KTS
Visibility
10 SM
Flight Rules
MVFR
Cloud Levels
  • Broken at 2,600' AGL
  • Overcast at 3,200' AGL
Temperature
26°C / 79°F
Dewpoint
19°C / 66°F
Humidity
65%
Altimeter
30.07" Hg
Pressure
1018.32 hPa